Time;durP1;ratioP1;P1;durP2;ratioP2;P2;SDS_P1;SDS_P2;PMS_P1;PMS_P2;Temp;Humidity;BMP_temperature;BMP_pressure;BME280_temperature;BME280_humidity;BME280_pressure;Samples;Min_cycle;Max_cycle;Signal;HPM_P1;HPM_P2
2023/08/18 00:02:22;;;;;;;3.33;2.67;;;20.40;99.90;;;;;;5127093;28;20240;-46
2023/08/18 00:04:53;;;;;;;9.43;3.53;;;20.30;99.90;;;;;;5126830;28;20300;-46
2023/08/18 00:07:24;;;;;;;3.10;3.00;;;20.30;99.90;;;;;;5143904;28;20536;-46
2023/08/18 00:09:55;;;;;;;4.50;3.23;;;20.40;99.90;;;;;;5142534;28;20181;-46
2023/08/18 00:12:26;;;;;;;5.47;2.80;;;20.40;99.90;;;;;;5143112;28;20201;-46
2023/08/18 00:14:56;;;;;;;3.20;3.00;;;20.30;99.90;;;;;;5124616;28;20174;-45
2023/08/18 00:17:27;;;;;;;3.20;3.00;;;20.30;99.90;;;;;;5146185;28;20599;-47
2023/08/18 00:19:58;;;;;;;7.60;3.67;;;20.20;99.90;;;;;;5141921;28;20277;-46
2023/08/18 00:22:29;;;;;;;3.60;3.27;;;20.20;99.90;;;;;;5127586;28;20544;-46
2023/08/18 00:25:00;;;;;;;4.90;3.43;;;20.20;99.90;;;;;;5128838;28;20666;-46
2023/08/18 00:27:31;;;;;;;3.87;3.47;;;20.20;99.90;;;;;;5142579;28;20442;-46
2023/08/18 00:30:02;;;;;;;6.27;3.47;;;20.10;99.90;;;;;;5144574;28;20202;-46
2023/08/18 00:32:34;;;;;;;4.50;3.83;;;20.20;99.90;;;;;;5140541;28;20288;-46
2023/08/18 00:35:05;;;;;;;5.57;4.00;;;20.10;99.90;;;;;;5126558;28;20185;-45
2023/08/18 00:37:36;;;;;;;3.40;3.10;;;20.20;99.90;;;;;;5139901;28;20555;-45
2023/08/18 00:40:07;;;;;;;6.17;3.13;;;20.20;99.90;;;;;;5145357;28;20517;-45
2023/08/18 00:42:38;;;;;;;6.47;3.60;;;20.20;99.90;;;;;;5125375;28;20206;-46
2023/08/18 00:45:09;;;;;;;4.20;3.80;;;20.20;99.90;;;;;;5143546;28;20437;-45
2023/08/18 00:47:40;;;;;;;6.27;3.80;;;20.20;99.90;;;;;;5126412;28;20280;-45
2023/08/18 00:50:12;;;;;;;5.10;3.83;;;20.30;99.90;;;;;;5145359;28;20448;-46
2023/08/18 00:52:43;;;;;;;9.00;4.30;;;20.30;99.90;;;;;;5129713;28;20447;-45
2023/08/18 00:55:15;;;;;;;6.67;3.70;;;20.30;99.90;;;;;;5145248;28;20437;-45
2023/08/18 00:57:46;;;;;;;4.27;3.90;;;20.30;99.90;;;;;;5129688;28;20489;-46
2023/08/18 01:00:16;;;;;;;4.30;3.90;;;20.30;99.90;;;;;;5127920;28;20461;-46
2023/08/18 01:02:47;;;;;;;5.20;4.63;;;20.40;99.90;;;;;;5144854;28;20197;-47
2023/08/18 01:05:18;;;;;;;4.97;4.63;;;20.40;99.90;;;;;;5143883;28;20528;-45
2023/08/18 01:07:49;;;;;;;5.47;4.53;;;20.40;99.90;;;;;;5144106;28;20244;-45
2023/08/18 01:10:21;;;;;;;6.53;5.10;;;20.40;99.90;;;;;;5146472;28;20919;-45
2023/08/18 01:13:01;;;;;;;5.13;4.63;;;20.40;99.90;;;;;;5146216;28;20181;-46
2023/08/18 01:15:38;;;;;;;6.80;5.27;;;20.40;99.90;;;;;;5141547;28;20437;-46
2023/08/18 01:18:10;;;;;;;4.73;4.33;;;20.50;99.90;;;;;;5149389;28;20872;-46
2023/08/18 01:20:41;;;;;;;5.43;4.93;;;20.40;99.90;;;;;;5147452;28;20500;-46
2023/08/18 01:23:12;;;;;;;5.80;5.30;;;20.40;99.90;;;;;;5145367;28;20439;-46
2023/08/18 01:25:43;;;;;;;4.83;4.53;;;20.40;99.90;;;;;;5152137;28;20641;-46
2023/08/18 01:28:14;;;;;;;6.93;5.37;;;20.50;99.90;;;;;;5148627;28;20440;-46
2023/08/18 01:30:52;;;;;;;8.70;5.40;;;20.50;99.90;;;;;;5147621;28;20240;-46
2023/08/18 01:33:32;;;;;;;5.23;4.83;;;20.50;99.90;;;;;;5146593;28;20224;-45
2023/08/18 01:36:17;;;;;;;6.10;4.80;;;20.50;99.90;;;;;;5149297;28;20480;-46
2023/08/18 01:38:50;;;;;;;5.87;5.10;;;20.50;99.90;;;;;;5148672;28;20482;-46
2023/08/18 01:41:26;;;;;;;6.47;4.90;;;20.50;99.90;;;;;;5134586;28;20544;-47
2023/08/18 01:43:58;;;;;;;4.67;4.37;;;20.50;99.90;;;;;;5145248;28;20476;-46
2023/08/18 01:46:29;;;;;;;6.50;5.50;;;20.50;99.90;;;;;;5146049;28;20507;-46
2023/08/18 01:49:00;;;;;;;5.27;4.83;;;20.40;99.90;;;;;;5127547;28;20445;-46
2023/08/18 01:51:30;;;;;;;11.27;5.13;;;20.40;99.90;;;;;;5145546;28;20223;-45
2023/08/18 01:54:01;;;;;;;6.23;5.20;;;20.40;99.90;;;;;;5131130;28;20178;-45
2023/08/18 01:56:32;;;;;;;4.43;4.17;;;20.40;99.90;;;;;;5144001;28;20205;-46
2023/08/18 01:59:04;;;;;;;6.80;5.13;;;20.40;99.90;;;;;;5129641;28;20204;-48
2023/08/18 02:01:34;;;;;;;5.27;4.77;;;20.30;99.90;;;;;;5145616;28;20198;-47
2023/08/18 02:04:05;;;;;;;9.23;5.20;;;20.30;99.90;;;;;;5128708;28;20448;-45
2023/08/18 02:06:36;;;;;;;6.33;5.07;;;20.30;99.90;;;;;;5145598;28;20242;-45
2023/08/18 02:09:06;;;;;;;8.80;5.50;;;20.30;99.90;;;;;;5130168;28;20190;-45
2023/08/18 02:11:37;;;;;;;6.70;6.10;;;20.30;99.90;;;;;;5144836;28;20213;-45
2023/08/18 02:14:08;;;;;;;7.50;5.87;;;20.20;99.90;;;;;;5129513;28;20220;-48
2023/08/18 02:16:41;;;;;;;6.93;6.33;;;20.20;99.90;;;;;;5123979;28;20186;-46
2023/08/18 02:19:11;;;;;;;6.70;5.93;;;20.20;99.90;;;;;;5126445;28;20208;-46
2023/08/18 02:21:42;;;;;;;10.70;6.70;;;20.20;99.90;;;;;;5141657;28;20513;-46
2023/08/18 02:24:14;;;;;;;5.40;5.00;;;20.20;99.90;;;;;;5144396;28;20594;-47
2023/08/18 02:26:45;;;;;;;10.10;6.13;;;20.10;99.90;;;;;;5143257;28;20553;-46
2023/08/18 02:29:15;;;;;;;8.17;6.50;;;20.10;99.90;;;;;;5144152;28;20532;-46
2023/08/18 02:31:47;;;;;;;6.70;6.07;;;20.00;99.90;;;;;;5133052;28;20219;-46
2023/08/18 02:34:18;;;;;;;6.73;6.13;;;20.00;99.90;;;;;;5146164;28;20599;-46
2023/08/18 02:36:49;;;;;;;5.77;5.27;;;20.00;99.90;;;;;;5127685;28;20794;-46
2023/08/18 02:39:20;;;;;;;6.07;5.53;;;20.00;99.90;;;;;;5147435;28;20460;-50
2023/08/18 02:41:51;;;;;;;9.60;6.60;;;19.90;99.90;;;;;;5152270;28;20202;-45
2023/08/18 02:44:25;;;;;;;6.63;6.07;;;19.90;99.90;;;;;;5132333;28;20435;-46
2023/08/18 02:46:56;;;;;;;10.73;7.27;;;19.90;99.90;;;;;;5141464;28;20186;-46
2023/08/18 02:49:27;;;;;;;12.73;7.10;;;20.00;99.90;;;;;;5149972;28;20467;-47
2023/08/18 02:51:57;;;;;;;9.70;7.13;;;19.90;99.90;;;;;;5125944;28;20209;-47
2023/08/18 02:54:28;;;;;;;8.80;7.33;;;20.00;99.90;;;;;;5148481;28;20182;-45
2023/08/18 02:56:59;;;;;;;8.60;7.70;;;20.00;99.90;;;;;;5144065;28;20236;-51
2023/08/18 02:59:29;;;;;;;9.23;8.30;;;20.00;99.90;;;;;;5147820;28;20240;-47
2023/08/18 03:02:00;;;;;;;17.43;8.07;;;20.00;99.90;;;;;;5142326;28;20347;-46
2023/08/18 03:04:31;;;;;;;11.47;8.23;;;20.00;99.90;;;;;;5116689;28;20186;-45
2023/08/18 03:07:02;;;;;;;11.73;7.73;;;19.90;99.90;;;;;;5147298;28;20205;-45
2023/08/18 03:09:32;;;;;;;8.70;7.17;;;20.00;99.90;;;;;;5132831;28;20280;-46
2023/08/18 03:12:03;;;;;;;12.30;8.00;;;19.90;99.90;;;;;;5148297;28;20248;-45
2023/08/18 03:14:34;;;;;;;9.17;7.43;;;19.90;99.90;;;;;;5136679;28;20557;-46
2023/08/18 03:17:06;;;;;;;8.40;6.90;;;19.90;99.90;;;;;;5146764;28;20448;-45
2023/08/18 03:19:36;;;;;;;8.90;8.00;;;19.90;99.90;;;;;;5133404;28;20213;-45
2023/08/18 03:22:07;;;;;;;17.30;7.40;;;19.90;99.90;;;;;;5143269;28;20467;-46
2023/08/18 03:24:38;;;;;;;20.63;8.10;;;19.80;99.90;;;;;;5130677;28;20263;-45
2023/08/18 03:27:08;;;;;;;7.87;6.93;;;19.80;99.90;;;;;;5143458;28;20178;-46
2023/08/18 03:29:39;;;;;;;9.47;7.20;;;19.80;99.90;;;;;;5143086;28;20273;-46
2023/08/18 03:32:10;;;;;;;7.77;7.00;;;19.80;99.90;;;;;;5149921;28;20764;-45
2023/08/18 03:34:40;;;;;;;10.23;7.00;;;19.70;99.90;;;;;;5130006;28;20547;-46
2023/08/18 03:37:11;;;;;;;7.07;6.47;;;19.70;99.90;;;;;;5149115;28;20206;-45
2023/08/18 03:39:42;;;;;;;10.00;7.77;;;19.70;99.90;;;;;;5150139;28;20205;-47
2023/08/18 03:42:12;;;;;;;16.30;7.20;;;19.70;99.90;;;;;;5148535;28;20574;-46
2023/08/18 03:44:43;;;;;;;9.93;6.97;;;19.70;99.90;;;;;;5149711;28;20177;-46
2023/08/18 03:47:14;;;;;;;6.50;5.43;;;19.70;99.90;;;;;;5145616;28;20177;-46
2023/08/18 03:49:44;;;;;;;6.47;5.80;;;19.70;99.90;;;;;;5146106;28;20213;-46
2023/08/18 03:52:15;;;;;;;6.90;6.30;;;19.70;99.90;;;;;;5148785;28;20201;-47
2023/08/18 03:54:46;;;;;;;9.37;7.23;;;19.60;99.90;;;;;;5147952;28;20198;-46
2023/08/18 03:57:18;;;;;;;8.47;6.53;;;19.60;99.90;;;;;;5133104;28;20214;-45
2023/08/18 03:59:49;;;;;;;9.07;7.70;;;19.70;99.90;;;;;;5142748;28;21022;-45
2023/08/18 04:02:20;;;;;;;13.93;6.80;;;19.60;99.90;;;;;;5126294;28;20461;-45
2023/08/18 04:04:50;;;;;;;13.97;7.37;;;19.60;99.90;;;;;;5143492;28;20209;-46
2023/08/18 04:07:21;;;;;;;13.90;7.27;;;19.60;99.90;;;;;;5145215;28;20181;-48
2023/08/18 04:09:52;;;;;;;9.23;7.40;;;19.60;99.90;;;;;;5140184;28;20189;-45
2023/08/18 04:12:23;;;;;;;13.30;7.43;;;19.60;99.90;;;;;;5145130;28;20281;-45
2023/08/18 04:14:53;;;;;;;8.33;7.63;;;19.60;99.90;;;;;;5145494;28;20205;-46
2023/08/18 04:17:24;;;;;;;7.67;7.00;;;19.60;99.90;;;;;;5145398;28;20269;-45
2023/08/18 04:19:55;;;;;;;7.93;7.17;;;19.60;99.90;;;;;;5139911;28;20189;-44
2023/08/18 04:22:25;;;;;;;8.00;7.20;;;19.70;99.90;;;;;;5127744;28;20229;-45
2023/08/18 04:24:57;;;;;;;9.63;6.47;;;19.70;99.90;;;;;;5141740;28;20178;-46
2023/08/18 04:27:28;;;;;;;9.07;7.00;;;19.70;99.90;;;;;;5141874;28;20181;-47
2023/08/18 04:29:59;;;;;;;6.93;6.03;;;19.80;99.90;;;;;;5141581;28;20921;-46
2023/08/18 04:32:30;;;;;;;11.23;6.30;;;19.80;99.90;;;;;;5141627;28;20670;-46
2023/08/18 04:35:01;;;;;;;7.20;6.10;;;19.90;99.90;;;;;;5125967;28;20193;-45
2023/08/18 04:37:32;;;;;;;9.53;7.10;;;19.90;99.90;;;;;;5130928;28;20201;-47
2023/08/18 04:40:04;;;;;;;8.87;7.00;;;20.00;99.90;;;;;;5143061;28;20441;-46
2023/08/18 04:42:35;;;;;;;7.30;6.23;;;20.00;99.90;;;;;;5147778;28;20345;-45
2023/08/18 04:45:06;;;;;;;8.87;6.53;;;20.00;99.90;;;;;;5130105;28;20519;-46
2023/08/18 04:47:37;;;;;;;6.40;5.80;;;20.10;99.90;;;;;;5146375;28;20193;-44
2023/08/18 04:50:08;;;;;;;8.67;6.60;;;20.10;99.90;;;;;;5141197;28;20961;-46
2023/08/18 04:52:39;;;;;;;7.67;6.87;;;20.10;99.90;;;;;;5151593;28;20288;-46
2023/08/18 04:55:10;;;;;;;11.23;7.33;;;20.20;99.90;;;;;;5143719;28;21298;-46
2023/08/18 04:57:41;;;;;;;7.07;6.43;;;20.20;99.90;;;;;;5133756;28;20196;-47
2023/08/18 05:00:12;;;;;;;7.47;6.70;;;20.30;99.90;;;;;;5146454;28;20441;-46
2023/08/18 05:02:43;;;;;;;10.30;6.77;;;20.40;99.90;;;;;;5146619;28;20208;-46
2023/08/18 05:05:14;;;;;;;8.40;6.53;;;20.50;99.90;;;;;;5146094;28;20436;-47
2023/08/18 05:07:45;;;;;;;11.10;6.83;;;20.60;99.90;;;;;;5149345;28;20598;-46
2023/08/18 05:10:16;;;;;;;10.20;6.20;;;20.70;99.90;;;;;;5147130;28;20571;-47
2023/08/18 05:12:46;;;;;;;7.37;6.67;;;20.80;99.90;;;;;;5135204;28;20194;-46
2023/08/18 05:15:17;;;;;;;6.60;6.00;;;20.90;99.90;;;;;;5145057;28;20186;-46
2023/08/18 05:17:49;;;;;;;6.63;6.13;;;21.00;99.90;;;;;;5146737;28;20209;-45
2023/08/18 05:20:19;;;;;;;8.27;6.90;;;21.10;99.90;;;;;;5134602;28;20174;-46
2023/08/18 05:22:51;;;;;;;6.40;5.90;;;21.20;99.90;;;;;;5148743;28;20436;-46
2023/08/18 05:25:22;;;;;;;7.57;6.87;;;21.60;99.90;;;;;;5146095;28;20568;-47
2023/08/18 05:27:53;;;;;;;14.10;7.50;;;22.80;99.90;;;;;;5114994;28;20432;-47
2023/08/18 05:30:23;;;;;;;6.03;5.53;;;24.30;99.90;;;;;;5127193;28;20526;-46
2023/08/18 05:32:54;;;;;;;5.80;5.27;;;25.40;99.90;;;;;;5128618;28;20182;-47
2023/08/18 05:35:26;;;;;;;5.80;5.30;;;26.70;99.90;;;;;;5125938;28;20652;-47
2023/08/18 05:37:57;;;;;;;6.23;5.70;;;27.20;99.90;;;;;;5145626;28;20663;-47
2023/08/18 05:40:27;;;;;;;6.50;5.90;;;27.50;99.90;;;;;;5127040;28;20460;-47
2023/08/18 05:42:58;;;;;;;8.17;6.30;;;27.10;99.90;;;;;;5146208;28;20182;-47
2023/08/18 05:45:29;;;;;;;6.63;5.90;;;25.90;99.90;;;;;;5129217;28;20190;-46
2023/08/18 05:47:59;;;;;;;6.00;5.47;;;25.30;99.90;;;;;;5134016;28;20194;-46
2023/08/18 05:50:31;;;;;;;4.97;4.50;;;25.10;99.90;;;;;;5146803;28;20721;-46
2023/08/18 05:53:03;;;;;;;7.63;5.17;;;25.20;99.90;;;;;;5146963;28;20205;-46
2023/08/18 05:55:34;;;;;;;6.50;5.90;;;25.00;99.90;;;;;;5146027;28;20949;-47
2023/08/18 05:58:05;;;;;;;6.17;5.60;;;25.50;99.90;;;;;;5147039;28;20472;-46
2023/08/18 06:00:36;;;;;;;6.37;5.70;;;26.90;99.90;;;;;;5143343;28;20737;-48
2023/08/18 06:03:06;;;;;;;5.20;4.70;;;28.50;99.90;;;;;;5144476;28;20193;-47
2023/08/18 06:05:37;;;;;;;15.00;5.43;;;30.10;99.90;;;;;;5143202;28;20313;-48
2023/08/18 06:08:08;;;;;;;5.27;4.83;;;31.20;98.60;;;;;;5139095;28;20237;-48
2023/08/18 06:10:39;;;;;;;9.20;5.30;;;31.30;95.10;;;;;;5143893;28;20555;-47
2023/08/18 06:13:10;;;;;;;9.10;5.03;;;31.60;92.90;;;;;;5140128;28;20193;-47
2023/08/18 06:15:41;;;;;;;6.03;5.43;;;31.90;91.10;;;;;;5144113;28;20458;-47
2023/08/18 06:18:13;;;;;;;5.60;5.20;;;31.90;90.30;;;;;;5140376;28;20206;-48
2023/08/18 06:20:45;;;;;;;5.73;5.17;;;32.00;87.70;;;;;;5130521;28;20461;-47
2023/08/18 06:23:15;;;;;;;7.93;5.80;;;32.20;84.10;;;;;;5138759;28;20185;-47
2023/08/18 06:25:46;;;;;;;7.00;5.73;;;31.80;82.80;;;;;;5140749;28;20445;-45
2023/08/18 06:28:17;;;;;;;17.60;5.80;;;31.80;81.50;;;;;;5128132;28;20286;-49
2023/08/18 06:30:48;;;;;;;6.50;4.83;;;31.40;82.90;;;;;;5142127;28;20224;-49
2023/08/18 06:33:18;;;;;;;6.10;5.50;;;31.60;81.50;;;;;;5122666;28;20178;-47
2023/08/18 06:35:49;;;;;;;5.93;4.57;;;31.90;80.00;;;;;;5138511;28;20200;-48
2023/08/18 06:38:20;;;;;;;5.83;4.83;;;32.20;81.00;;;;;;5143134;28;20204;-47
2023/08/18 06:40:51;;;;;;;5.63;4.33;;;32.80;77.00;;;;;;5136946;28;20208;-48
2023/08/18 06:43:22;;;;;;;6.53;5.83;;;33.30;74.60;;;;;;5128740;28;20185;-48
2023/08/18 06:45:52;;;;;;;5.20;4.80;;;33.90;71.10;;;;;;5143628;28;20209;-47
2023/08/18 06:48:23;;;;;;;11.57;5.03;;;34.40;68.60;;;;;;5129011;28;20181;-47
2023/08/18 06:50:54;;;;;;;4.73;4.33;;;34.00;66.70;;;;;;5143476;28;20240;-47
2023/08/18 06:53:24;;;;;;;6.30;4.60;;;34.20;66.30;;;;;;5123431;28;20176;-46
2023/08/18 06:55:56;;;;;;;4.57;4.17;;;34.50;63.20;;;;;;5138039;28;20193;-47
2023/08/18 06:58:27;;;;;;;7.97;4.00;;;35.20;62.10;;;;;;5138159;28;20692;-48
2023/08/18 07:00:58;;;;;;;5.05;4.40;;;36.10;59.10;;;;;;5133069;28;20205;-47
2023/08/18 07:03:28;;;;;;;7.70;3.92;;;36.80;55.90;;;;;;5138225;28;20225;-47
2023/08/18 07:05:59;;;;;;;7.18;3.90;;;37.30;53.50;;;;;;5130475;28;20554;-49
2023/08/18 07:08:30;;;;;;;7.13;4.38;;;37.90;52.10;;;;;;5126964;28;20192;-47
2023/08/18 07:11:02;;;;;;;3.85;3.55;;;38.70;49.90;;;;;;5144503;28;20216;-48
2023/08/18 07:13:34;;;;;;;6.22;3.92;;;39.70;47.90;;;;;;5142252;28;20182;-49
2023/08/18 07:16:04;;;;;;;3.70;3.50;;;40.70;45.60;;;;;;5143865;28;20192;-49
2023/08/18 07:18:35;;;;;;;4.15;3.80;;;41.20;43.40;;;;;;5143869;28;20200;-51
2023/08/18 07:21:06;;;;;;;7.60;4.95;;;40.70;42.10;;;;;;5142639;28;20263;-47
2023/08/18 07:23:37;;;;;;;4.78;4.47;;;39.60;42.90;;;;;;5124809;28;20673;-48
2023/08/18 07:26:08;;;;;;;5.18;4.57;;;39.30;42.90;;;;;;5145410;28;20642;-47
2023/08/18 07:28:38;;;;;;;5.22;4.82;;;38.50;43.40;;;;;;5139243;28;20181;-47
2023/08/18 07:31:10;;;;;;;7.45;4.15;;;37.00;45.40;;;;;;5125670;28;20239;-48
2023/08/18 07:33:40;;;;;;;5.15;4.75;;;36.30;47.20;;;;;;5139896;28;20194;-48
2023/08/18 07:36:11;;;;;;;13.40;4.70;;;36.40;47.00;;;;;;5138609;28;20200;-48
2023/08/18 07:38:42;;;;;;;4.07;3.78;;;37.10;46.70;;;;;;5142646;28;20223;-48
2023/08/18 07:41:12;;;;;;;7.80;4.50;;;37.80;45.30;;;;;;5137833;28;20237;-49
2023/08/18 07:43:43;;;;;;;4.28;3.88;;;39.00;44.20;;;;;;5127339;28;20645;-49
2023/08/18 07:46:14;;;;;;;7.57;5.10;;;40.00;42.50;;;;;;5127325;28;20215;-50
2023/08/18 07:48:45;;;;;;;4.35;4.15;;;39.80;41.20;;;;;;5137666;28;20213;-48
2023/08/18 07:51:15;;;;;;;4.28;3.90;;;39.20;41.70;;;;;;5132073;28;20217;-47
2023/08/18 07:53:46;;;;;;;4.32;4.00;;;38.60;42.40;;;;;;5135212;28;20553;-50
2023/08/18 07:56:17;;;;;;;4.28;3.92;;;38.30;43.00;;;;;;5141760;28;20271;-48
2023/08/18 07:58:48;;;;;;;4.90;4.60;;;38.40;42.90;;;;;;5144200;28;20676;-49
2023/08/18 08:01:19;;;;;;;5.78;3.33;;;37.90;43.20;;;;;;5141489;28;20204;-49
2023/08/18 08:03:50;;;;;;;6.35;4.22;;;37.70;43.90;;;;;;5127153;28;20658;-49
2023/08/18 08:06:21;;;;;;;5.35;4.85;;;38.20;43.20;;;;;;5130381;28;20192;-48
2023/08/18 08:08:51;;;;;;;4.75;4.28;;;38.10;43.20;;;;;;5128049;28;20185;-48
2023/08/18 08:11:22;;;;;;;4.82;4.32;;;38.30;43.60;;;;;;5128220;28;20208;-48
2023/08/18 08:13:53;;;;;;;4.13;3.75;;;38.80;42.60;;;;;;5139870;28;20185;-49
2023/08/18 08:16:23;;;;;;;3.85;3.53;;;39.70;41.20;;;;;;5143562;28;20197;-48
2023/08/18 08:18:54;;;;;;;7.70;3.45;;;39.90;39.80;;;;;;5124726;28;20201;-49
2023/08/18 08:21:25;;;;;;;3.88;3.67;;;39.70;40.50;;;;;;5143229;28;20725;-49
2023/08/18 08:23:56;;;;;;;3.63;3.42;;;38.90;40.40;;;;;;5126130;28;20211;-48
2023/08/18 08:26:26;;;;;;;3.83;3.53;;;38.20;41.50;;;;;;5122911;28;20784;-49
2023/08/18 08:28:57;;;;;;;4.53;4.13;;;38.50;41.80;;;;;;5141970;28;20196;-49
2023/08/18 08:31:28;;;;;;;4.03;3.83;;;39.00;40.60;;;;;;5129375;28;20227;-48
2023/08/18 08:33:59;;;;;;;7.28;3.88;;;38.50;40.90;;;;;;5143720;28;20271;-48
2023/08/18 08:36:32;;;;;;;5.25;3.80;;;37.70;42.40;;;;;;5146366;28;20200;-48
2023/08/18 08:39:04;;;;;;;4.38;3.72;;;37.80;42.90;;;;;;5127207;28;20241;-46
2023/08/18 08:41:34;;;;;;;4.60;3.53;;;37.20;43.00;;;;;;5139424;28;20572;-49
2023/08/18 08:44:05;;;;;;;6.80;4.15;;;36.40;44.40;;;;;;5136244;28;20186;-49
2023/08/18 08:46:37;;;;;;;4.18;3.97;;;35.60;45.40;;;;;;5140714;28;20203;-48
2023/08/18 08:49:10;;;;;;;4.70;4.30;;;34.70;47.00;;;;;;5132377;28;20193;-53
2023/08/18 08:51:46;;;;;;;12.57;4.30;;;33.70;49.20;;;;;;5140196;28;20224;-46
2023/08/18 08:54:20;;;;;;;4.00;3.70;;;32.70;50.90;;;;;;5137910;28;20200;-47
2023/08/18 08:56:51;;;;;;;4.07;3.63;;;31.70;52.60;;;;;;5134861;28;20200;-49
2023/08/18 08:59:23;;;;;;;5.10;4.20;;;31.00;52.90;;;;;;5141671;28;20233;-47
2023/08/18 09:01:53;;;;;;;6.10;4.10;;;30.30;55.20;;;;;;5139773;28;20209;-47
2023/08/18 09:04:24;;;;;;;9.73;4.20;;;29.70;56.30;;;;;;5122793;28;20477;-47
2023/08/18 09:06:56;;;;;;;3.90;3.60;;;29.40;57.10;;;;;;5124830;28;20185;-46
2023/08/18 09:09:27;;;;;;;4.00;3.67;;;29.00;57.70;;;;;;5141067;28;20191;-46
2023/08/18 09:12:05;;;;;;;3.57;3.27;;;28.70;58.40;;;;;;5139016;28;20452;-47
2023/08/18 09:14:41;;;;;;;5.83;3.63;;;28.50;59.10;;;;;;5142546;28;20651;-46
2023/08/18 09:17:12;;;;;;;4.27;3.87;;;28.60;59.40;;;;;;5124115;28;20453;-49
2023/08/18 09:19:43;;;;;;;5.13;3.23;;;28.60;59.80;;;;;;5142018;28;20465;-48
2023/08/18 09:22:14;;;;;;;4.10;3.80;;;28.60;60.00;;;;;;5145161;28;20251;-46
2023/08/18 09:24:48;;;;;;;3.37;3.17;;;28.60;59.80;;;;;;5126297;28;20543;-46
2023/08/18 09:27:20;;;;;;;3.07;2.97;;;28.50;59.80;;;;;;5141703;28;20466;-49
2023/08/18 09:29:52;;;;;;;3.80;3.50;;;28.40;58.70;;;;;;5142141;28;20448;-48
2023/08/18 09:32:23;;;;;;;4.17;3.80;;;28.30;59.20;;;;;;5137420;28;20543;-47
2023/08/18 09:34:54;;;;;;;4.27;3.97;;;28.30;60.30;;;;;;5139962;28;20441;-47
2023/08/18 09:37:34;;;;;;;4.73;4.00;;;28.30;58.90;;;;;;5131514;28;20264;-48
2023/08/18 09:40:06;;;;;;;4.60;4.20;;;28.20;59.90;;;;;;5141904;28;20850;-49
2023/08/18 09:42:36;;;;;;;3.90;3.60;;;28.20;60.00;;;;;;5142382;28;20492;-47
2023/08/18 09:45:08;;;;;;;4.87;4.37;;;28.20;59.10;;;;;;5142659;28;20532;-46
2023/08/18 09:47:44;;;;;;;3.47;3.27;;;28.20;59.40;;;;;;5141033;28;20646;-46
2023/08/18 09:50:16;;;;;;;4.67;4.03;;;28.20;60.00;;;;;;5144933;28;20590;-47
2023/08/18 09:52:52;;;;;;;9.53;4.60;;;28.20;60.40;;;;;;5142615;28;20539;-48
2023/08/18 09:55:46;;;;;;;4.53;4.23;;;28.30;60.80;;;;;;5144015;28;20440;-48
2023/08/18 09:58:41;;;;;;;4.60;4.20;;;28.30;61.20;;;;;;5135799;28;20531;-48
2023/08/18 10:01:14;;;;;;;4.07;3.40;;;28.50;62.00;;;;;;5139388;28;20536;-47
2023/08/18 10:03:46;;;;;;;4.87;3.30;;;28.70;60.50;;;;;;5126129;28;20972;-45
2023/08/18 10:06:18;;;;;;;9.80;3.87;;;28.60;60.00;;;;;;5130274;28;20429;-47
2023/08/18 10:08:52;;;;;;;3.53;3.23;;;28.50;60.10;;;;;;5130407;28;20465;-50
2023/08/18 10:11:23;;;;;;;3.20;2.97;;;28.40;59.90;;;;;;5138697;28;20548;-48
2023/08/18 10:13:54;;;;;;;5.47;4.93;;;28.40;58.30;;;;;;5139030;28;20472;-48
2023/08/18 10:16:25;;;;;;;2.90;2.73;;;28.40;59.10;;;;;;5140513;28;20480;-47
2023/08/18 10:18:57;;;;;;;4.83;3.67;;;28.40;58.20;;;;;;5125863;28;20225;-47
2023/08/18 10:21:28;;;;;;;3.23;3.00;;;28.40;58.90;;;;;;5140497;28;20457;-48
2023/08/18 10:24:02;;;;;;;3.70;3.40;;;28.40;58.50;;;;;;5137855;28;20492;-48
2023/08/18 10:26:36;;;;;;;3.47;3.27;;;28.50;58.00;;;;;;5141147;28;20467;-48
2023/08/18 10:29:19;;;;;;;4.10;3.80;;;28.50;58.20;;;;;;5142052;28;21029;-47
2023/08/18 10:31:49;;;;;;;4.27;3.73;;;28.70;58.00;;;;;;5123250;28;20479;-47
2023/08/18 10:34:22;;;;;;;4.10;3.70;;;28.70;58.40;;;;;;5142808;28;20437;-47
2023/08/18 10:36:59;;;;;;;3.97;3.67;;;28.70;58.20;;;;;;5123762;28;20216;-48
2023/08/18 10:39:36;;;;;;;4.80;3.20;;;28.80;58.70;;;;;;5125767;28;20469;-46
2023/08/18 10:42:09;;;;;;;6.03;3.70;;;28.90;58.00;;;;;;5143975;28;20456;-48
2023/08/18 10:44:59;;;;;;;3.00;2.90;;;28.90;57.90;;;;;;5127700;28;20449;-48
2023/08/18 10:47:32;;;;;;;3.67;3.40;;;28.90;58.10;;;;;;5142331;28;20437;-47
2023/08/18 10:50:06;;;;;;;9.20;3.30;;;28.90;57.70;;;;;;5144593;28;20452;-47
2023/08/18 10:52:36;;;;;;;4.90;3.87;;;28.80;58.30;;;;;;5123294;28;20552;-49
2023/08/18 10:55:07;;;;;;;7.40;3.63;;;28.90;58.70;;;;;;5145299;28;20603;-47
2023/08/18 10:57:38;;;;;;;4.00;3.30;;;28.80;58.40;;;;;;5145160;28;20186;-45
2023/08/18 11:00:12;;;;;;;3.87;3.47;;;28.70;58.20;;;;;;5137502;28;20304;-47
2023/08/18 11:02:44;;;;;;;4.20;3.80;;;28.50;58.80;;;;;;5144453;28;20295;-46
2023/08/18 11:05:17;;;;;;;4.67;4.27;;;28.60;59.50;;;;;;5126618;28;20520;-49
2023/08/18 11:07:50;;;;;;;4.67;3.60;;;28.70;58.90;;;;;;5143721;28;20432;-47
2023/08/18 11:10:23;;;;;;;3.80;3.60;;;28.70;59.30;;;;;;5145408;28;20527;-47
2023/08/18 11:12:57;;;;;;;3.90;3.60;;;28.70;59.20;;;;;;5145173;28;20445;-47
2023/08/18 11:15:28;;;;;;;5.70;4.30;;;28.70;59.20;;;;;;5142942;28;20782;-47
2023/08/18 11:17:58;;;;;;;4.30;3.57;;;28.70;59.40;;;;;;5138849;28;20444;-49
2023/08/18 11:20:29;;;;;;;4.20;3.90;;;28.80;59.70;;;;;;5141036;28;20445;-47
2023/08/18 11:23:00;;;;;;;6.73;3.67;;;28.90;60.00;;;;;;5146058;28;20182;-49
2023/08/18 11:25:32;;;;;;;4.07;3.77;;;28.90;60.10;;;;;;5128798;28;20573;-49
2023/08/18 11:28:03;;;;;;;4.67;4.27;;;28.90;60.90;;;;;;5144783;28;20196;-46
2023/08/18 11:30:34;;;;;;;3.80;3.50;;;28.80;60.60;;;;;;5124198;28;20440;-49
2023/08/18 11:33:05;;;;;;;8.53;3.50;;;28.80;61.00;;;;;;5121404;28;20186;-49
2023/08/18 11:35:36;;;;;;;4.40;3.70;;;28.90;61.50;;;;;;5137352;28;20441;-47
2023/08/18 11:38:08;;;;;;;7.70;3.43;;;29.00;60.60;;;;;;5123543;28;20209;-48
2023/08/18 11:40:39;;;;;;;4.03;3.73;;;29.00;60.40;;;;;;5138242;28;20280;-48
2023/08/18 11:43:11;;;;;;;3.73;3.50;;;29.00;59.60;;;;;;5142453;28;20519;-47
2023/08/18 11:45:42;;;;;;;3.97;3.80;;;29.00;59.60;;;;;;5139633;28;20543;-47
2023/08/18 11:48:13;;;;;;;4.00;3.70;;;28.90;59.90;;;;;;5141321;28;20976;-47
2023/08/18 11:50:45;;;;;;;4.13;3.93;;;29.00;60.20;;;;;;5143875;28;20212;-47
2023/08/18 11:53:24;;;;;;;4.27;3.97;;;29.10;59.80;;;;;;5127084;28;20444;-47
2023/08/18 11:55:56;;;;;;;3.87;3.57;;;29.20;60.10;;;;;;5123649;28;20483;-47
2023/08/18 11:58:28;;;;;;;4.60;4.30;;;29.30;60.40;;;;;;5136475;28;20468;-48
2023/08/18 12:01:04;;;;;;;11.27;4.73;;;29.30;60.40;;;;;;5142751;28;20492;-46
2023/08/18 12:03:35;;;;;;;4.73;4.00;;;29.40;60.80;;;;;;5140174;28;20456;-47
2023/08/18 12:06:06;;;;;;;5.20;4.70;;;29.50;60.90;;;;;;5146061;28;20447;-46
2023/08/18 12:08:36;;;;;;;5.10;4.63;;;29.60;60.70;;;;;;5136425;28;20182;-48
2023/08/18 12:11:07;;;;;;;4.57;4.10;;;29.60;61.00;;;;;;5132339;28;20217;-48
2023/08/18 12:13:37;;;;;;;4.53;4.23;;;29.60;61.10;;;;;;5126444;28;21168;-46
2023/08/18 12:16:08;;;;;;;5.90;5.10;;;29.60;60.70;;;;;;5144941;28;20211;-46
2023/08/18 12:18:39;;;;;;;5.43;4.80;;;29.50;61.30;;;;;;5145079;28;20224;-47
2023/08/18 12:21:10;;;;;;;4.73;4.43;;;29.30;60.70;;;;;;5123045;28;20250;-46
2023/08/18 12:23:41;;;;;;;5.20;4.50;;;29.20;61.60;;;;;;5137301;28;20244;-47
2023/08/18 12:26:12;;;;;;;4.27;4.07;;;29.20;62.30;;;;;;5142118;28;20196;-48
2023/08/18 12:28:43;;;;;;;4.63;4.33;;;29.30;61.20;;;;;;5125594;28;20572;-47
2023/08/18 12:31:14;;;;;;;7.20;3.60;;;29.30;60.90;;;;;;5136338;28;20452;-48
2023/08/18 12:33:45;;;;;;;4.77;4.43;;;29.20;60.80;;;;;;5142905;28;20197;-48
2023/08/18 12:36:16;;;;;;;10.00;5.03;;;29.20;61.60;;;;;;5140614;28;20448;-46
2023/08/18 12:38:47;;;;;;;7.47;4.80;;;29.20;62.10;;;;;;5142632;28;20201;-46
2023/08/18 12:41:18;;;;;;;5.60;5.10;;;29.30;61.70;;;;;;5130691;28;20268;-46
2023/08/18 12:43:49;;;;;;;4.10;3.90;;;29.30;61.10;;;;;;5126129;28;20233;-47
2023/08/18 12:46:19;;;;;;;6.97;4.90;;;29.60;61.00;;;;;;5140746;28;20440;-47
2023/08/18 12:48:51;;;;;;;5.03;4.60;;;29.40;62.10;;;;;;5137227;28;20276;-47
2023/08/18 12:51:22;;;;;;;8.93;5.67;;;29.30;61.60;;;;;;5144104;28;20200;-47
2023/08/18 12:53:53;;;;;;;4.73;3.80;;;29.30;61.90;;;;;;5141262;28;20547;-47
2023/08/18 12:56:24;;;;;;;4.37;4.07;;;29.20;61.80;;;;;;5143218;28;20174;-47
2023/08/18 12:58:54;;;;;;;4.70;4.37;;;29.20;62.40;;;;;;5144075;28;20201;-47
2023/08/18 13:01:25;;;;;;;8.70;3.97;;;29.20;62.10;;;;;;5138405;28;20243;-46
2023/08/18 13:03:56;;;;;;;9.93;4.90;;;29.20;62.70;;;;;;5143966;28;20185;-47
2023/08/18 13:06:27;;;;;;;4.90;4.40;;;29.10;61.40;;;;;;5127988;28;20196;-47
2023/08/18 13:08:58;;;;;;;5.93;5.30;;;29.20;62.30;;;;;;5145523;28;20265;-47